Time;durP1;ratioP1;P1;durP2;ratioP2;P2;SDS_P1;SDS_P2;PMS_P1;PMS_P2;Temp;Humidity;BMP_temperature;BMP_pressure;BME280_temperature;BME280_humidity;BME280_pressure;Samples;Min_cycle;Max_cycle;Signal;HPM_P1;HPM_P2
2022/02/25 00:02:10;;;;;;;11.07;3.33;;;3.10;80.20;;;;;;4970094;28;20023;-78
2022/02/25 00:04:36;;;;;;;10.27;4.07;;;3.10;80.30;;;;;;4964233;28;20076;-79
2022/02/25 00:07:02;;;;;;;9.95;2.80;;;3.10;80.40;;;;;;4965119;28;20521;-83
2022/02/25 00:09:28;;;;;;;13.10;3.90;;;3.10;80.40;;;;;;4973722;28;20026;-83
2022/02/25 00:11:54;;;;;;;15.10;2.95;;;3.10;80.20;;;;;;4964153;28;20514;-83
2022/02/25 00:14:20;;;;;;;9.80;3.00;;;3.10;80.30;;;;;;4951136;28;20039;-83
2022/02/25 00:16:46;;;;;;;10.40;3.28;;;3.10;80.30;;;;;;4974794;28;20076;-83
2022/02/25 00:19:12;;;;;;;11.32;3.85;;;3.10;80.20;;;;;;4968504;28;20061;-83
2022/02/25 00:21:38;;;;;;;16.35;3.35;;;3.10;80.00;;;;;;4973046;28;20387;-83
2022/02/25 00:24:04;;;;;;;15.30;3.22;;;3.20;80.20;;;;;;4973070;28;20074;-83
2022/02/25 00:26:30;;;;;;;13.15;3.10;;;3.20;80.20;;;;;;4963557;28;20472;-83
2022/02/25 00:28:56;;;;;;;12.88;3.17;;;3.20;80.20;;;;;;4980698;28;20429;-83
2022/02/25 00:31:22;;;;;;;13.10;3.55;;;3.10;80.30;;;;;;4985572;28;20049;-84
2022/02/25 00:33:48;;;;;;;14.68;3.58;;;3.10;80.20;;;;;;4982178;28;20280;-83
2022/02/25 00:36:14;;;;;;;15.10;3.25;;;3.10;80.30;;;;;;4972957;28;20066;-84
2022/02/25 00:38:40;;;;;;;12.65;3.83;;;3.10;80.40;;;;;;4979977;28;20041;-83
2022/02/25 00:41:05;;;;;;;23.17;4.15;;;3.20;80.10;;;;;;4979040;28;20031;-83
2022/02/25 00:43:31;;;;;;;12.50;3.38;;;3.10;80.20;;;;;;4974576;28;20478;-83
2022/02/25 00:45:57;;;;;;;12.02;3.63;;;3.10;80.40;;;;;;4977868;28;20161;-83
2022/02/25 00:48:23;;;;;;;15.73;4.00;;;3.10;80.30;;;;;;4965048;28;20041;-84
2022/02/25 00:50:49;;;;;;;15.57;4.28;;;3.10;80.40;;;;;;4955622;28;20030;-83
2022/02/25 00:53:14;;;;;;;13.02;3.92;;;3.20;80.30;;;;;;4946697;28;20181;-83
2022/02/25 00:55:40;;;;;;;18.17;3.65;;;3.20;80.30;;;;;;4964020;28;20049;-84
2022/02/25 00:58:06;;;;;;;14.05;3.05;;;3.20;80.20;;;;;;4965335;28;20037;-83
2022/02/25 01:00:32;;;;;;;13.13;3.38;;;3.20;80.40;;;;;;4970740;28;20033;-83
2022/02/25 01:02:58;;;;;;;14.32;3.78;;;3.20;80.30;;;;;;4971346;28;20050;-83
2022/02/25 01:05:24;;;;;;;15.20;3.40;;;3.20;80.40;;;;;;4975368;28;20053;-83
2022/02/25 01:07:49;;;;;;;17.48;4.07;;;3.20;80.30;;;;;;4964174;28;20042;-83
2022/02/25 01:10:17;;;;;;;19.17;4.00;;;3.20;80.30;;;;;;4965221;28;20051;-83
2022/02/25 01:12:45;;;;;;;13.48;3.58;;;3.20;80.20;;;;;;4968866;28;20034;-83
2022/02/25 01:15:12;;;;;;;15.18;3.80;;;3.30;80.20;;;;;;4969639;28;20081;-83
2022/02/25 01:17:39;;;;;;;16.02;3.53;;;3.30;79.90;;;;;;4974593;28;20038;-84
2022/02/25 01:20:06;;;;;;;18.25;3.47;;;3.30;79.90;;;;;;4974904;28;20050;-83
2022/02/25 01:22:32;;;;;;;15.18;3.80;;;3.30;79.90;;;;;;4968051;28;20384;-83
2022/02/25 01:24:58;;;;;;;16.27;3.72;;;3.30;79.90;;;;;;4967558;28;20614;-83
2022/02/25 01:27:25;;;;;;;17.15;4.35;;;3.20;79.90;;;;;;4966955;28;21832;-83
2022/02/25 01:29:50;;;;;;;16.75;3.28;;;3.30;80.00;;;;;;4973385;28;20038;-83
2022/02/25 01:32:16;;;;;;;20.60;4.05;;;3.30;79.90;;;;;;4952729;28;20329;-84
2022/02/25 01:34:42;;;;;;;13.88;3.80;;;3.30;79.80;;;;;;4949440;28;20031;-83
2022/02/25 01:37:08;;;;;;;8.80;3.17;;;3.20;80.10;;;;;;4981825;28;20069;-83
2022/02/25 01:39:34;;;;;;;17.70;3.90;;;3.20;80.30;;;;;;4962119;28;20046;-83
2022/02/25 01:42:01;;;;;;;18.20;3.97;;;3.20;80.50;;;;;;4950512;28;20058;-83
2022/02/25 01:44:29;;;;;;;13.10;3.95;;;3.10;80.70;;;;;;4964054;28;20486;-83
2022/02/25 01:47:03;;;;;;;13.95;3.35;;;3.10;80.60;;;;;;4951367;28;20069;-83
2022/02/25 01:49:29;;;;;;;12.85;3.25;;;3.10;80.60;;;;;;4962453;28;20038;-84
2022/02/25 01:51:59;;;;;;;17.60;4.38;;;3.10;80.80;;;;;;4965084;28;20082;-83
2022/02/25 01:54:26;;;;;;;13.73;3.50;;;3.10;80.70;;;;;;4956839;28;20038;-83
2022/02/25 01:56:55;;;;;;;16.83;3.55;;;3.10;80.90;;;;;;4962375;28;20038;-83
2022/02/25 01:59:21;;;;;;;10.52;3.78;;;3.10;80.90;;;;;;4969588;28;20086;-83
2022/02/25 02:01:47;;;;;;;14.90;3.92;;;3.10;80.80;;;;;;4961414;28;20121;-83
2022/02/25 02:04:13;;;;;;;17.35;3.42;;;3.00;80.80;;;;;;4967705;28;20125;-83
2022/02/25 02:06:39;;;;;;;12.55;3.13;;;3.10;80.90;;;;;;4949022;28;20039;-83
2022/02/25 02:09:07;;;;;;;15.57;3.30;;;3.00;81.20;;;;;;4962083;28;20089;-84
2022/02/25 02:11:36;;;;;;;18.33;4.38;;;3.00;81.30;;;;;;4941544;28;20377;-83
2022/02/25 02:14:05;;;;;;;11.18;3.22;;;3.10;81.10;;;;;;4969440;28;20039;-83
2022/02/25 02:16:31;;;;;;;15.77;3.75;;;3.00;81.40;;;;;;4966647;28;20086;-83
2022/02/25 02:18:57;;;;;;;20.38;4.53;;;3.00;81.30;;;;;;4966933;28;20062;-82
2022/02/25 02:21:28;;;;;;;20.38;4.03;;;3.10;81.50;;;;;;4966329;28;20437;-82
2022/02/25 02:23:55;;;;;;;16.02;3.30;;;3.00;81.40;;;;;;4963968;28;20081;-82
2022/02/25 02:26:21;;;;;;;16.95;4.15;;;3.10;81.40;;;;;;4970332;28;20059;-82
2022/02/25 02:28:47;;;;;;;13.52;3.95;;;3.10;81.20;;;;;;4964232;28;20035;-82
2022/02/25 02:31:13;;;;;;;17.23;4.05;;;3.00;81.30;;;;;;4968757;28;20063;-82
2022/02/25 02:33:40;;;;;;;15.80;3.65;;;3.00;81.40;;;;;;4963805;28;20146;-82
2022/02/25 02:36:07;;;;;;;19.52;4.47;;;3.00;81.60;;;;;;4978954;28;20535;-82
2022/02/25 02:38:34;;;;;;;12.40;3.83;;;3.00;81.60;;;;;;4972717;28;20038;-83
2022/02/25 02:40:59;;;;;;;15.85;3.50;;;2.90;81.50;;;;;;4971406;28;20038;-83
2022/02/25 02:43:26;;;;;;;18.58;4.57;;;3.00;81.40;;;;;;4970941;28;20106;-83
2022/02/25 02:45:52;;;;;;;14.07;4.28;;;3.00;81.50;;;;;;4966668;28;20360;-83
2022/02/25 02:48:19;;;;;;;13.52;3.60;;;2.90;81.40;;;;;;4972739;28;20041;-82
2022/02/25 02:50:44;;;;;;;15.02;3.28;;;3.00;81.40;;;;;;4965259;28;20071;-83
2022/02/25 02:53:10;;;;;;;15.30;3.28;;;2.90;81.50;;;;;;4969835;28;20145;-82
2022/02/25 02:55:36;;;;;;;20.05;4.18;;;2.90;81.70;;;;;;4964564;28;20042;-82
2022/02/25 02:58:03;;;;;;;19.80;4.20;;;2.90;81.70;;;;;;4975884;28;20038;-82
2022/02/25 03:00:29;;;;;;;14.05;3.53;;;2.90;81.70;;;;;;4971256;28;20471;-82
2022/02/25 03:02:55;;;;;;;16.52;3.13;;;2.90;81.90;;;;;;4965898;28;20043;-82
2022/02/25 03:05:22;;;;;;;11.55;2.63;;;3.00;81.80;;;;;;4965467;28;20035;-83
2022/02/25 03:07:49;;;;;;;19.58;3.38;;;2.90;81.70;;;;;;4968143;28;20104;-82
2022/02/25 03:10:15;;;;;;;17.45;3.38;;;3.00;81.70;;;;;;4955033;28;20039;-82
2022/02/25 03:12:42;;;;;;;15.93;3.40;;;3.00;81.60;;;;;;4975390;28;20031;-81
2022/02/25 03:15:09;;;;;;;13.77;3.55;;;3.00;81.70;;;;;;4964346;28;20038;-82
2022/02/25 03:17:37;;;;;;;14.57;3.35;;;3.00;81.70;;;;;;4965410;28;20134;-83
2022/02/25 03:20:07;;;;;;;17.92;3.90;;;2.90;81.70;;;;;;4949024;28;20048;-82
2022/02/25 03:22:33;;;;;;;12.93;2.90;;;2.90;81.80;;;;;;4969935;28;20031;-82
2022/02/25 03:25:00;;;;;;;14.05;3.22;;;2.90;82.10;;;;;;4968487;28;20031;-82
2022/02/25 03:27:26;;;;;;;15.30;3.17;;;3.00;81.80;;;;;;4969452;28;20050;-82
2022/02/25 03:29:52;;;;;;;16.15;3.47;;;3.00;81.80;;;;;;4962608;28;20037;-82
2022/02/25 03:32:19;;;;;;;13.25;3.47;;;3.00;82.00;;;;;;4958552;28;20261;-83
2022/02/25 03:34:45;;;;;;;16.75;3.72;;;3.00;81.80;;;;;;4964715;28;20130;-83
2022/02/25 03:37:11;;;;;;;13.02;3.53;;;3.10;81.80;;;;;;4962787;28;20105;-83
2022/02/25 03:39:37;;;;;;;20.10;4.25;;;3.10;81.90;;;;;;4964774;28;20038;-83
2022/02/25 03:42:04;;;;;;;17.38;3.90;;;3.10;81.80;;;;;;4970570;28;20082;-83
2022/02/25 03:44:30;;;;;;;21.55;3.88;;;3.10;81.50;;;;;;4977201;28;20031;-83
2022/02/25 03:46:56;;;;;;;18.85;2.95;;;3.20;81.40;;;;;;4968040;28;20059;-83
2022/02/25 03:49:22;;;;;;;17.83;3.45;;;3.20;81.40;;;;;;4947614;28;20682;-83
2022/02/25 03:51:48;;;;;;;16.83;3.90;;;3.20;81.40;;;;;;4968008;28;20033;-83
2022/02/25 03:54:14;;;;;;;15.25;3.55;;;3.30;81.40;;;;;;4970092;28;20109;-83
2022/02/25 03:56:40;;;;;;;17.77;3.25;;;3.40;81.20;;;;;;4969766;28;20066;-82
2022/02/25 03:59:06;;;;;;;15.57;4.15;;;3.50;80.90;;;;;;4957401;28;20034;-82
2022/02/25 04:01:32;;;;;;;18.77;3.80;;;3.60;80.90;;;;;;4965282;28;20045;-82
2022/02/25 04:03:57;;;;;;;20.10;4.20;;;3.60;80.50;;;;;;4974647;28;20372;-82
2022/02/25 04:06:24;;;;;;;15.38;3.55;;;3.70;80.30;;;;;;4971033;28;20474;-81
2022/02/25 04:08:49;;;;;;;17.92;4.47;;;3.70;80.10;;;;;;4977981;28;20054;-82
2022/02/25 04:11:15;;;;;;;16.25;4.30;;;3.80;79.90;;;;;;4958970;28;20486;-82
2022/02/25 04:13:41;;;;;;;16.60;3.50;;;3.80;79.90;;;;;;4970594;28;20081;-82
2022/02/25 04:16:07;;;;;;;19.88;3.70;;;3.90;79.80;;;;;;4976544;28;20145;-82
2022/02/25 04:18:34;;;;;;;18.50;3.60;;;3.90;79.60;;;;;;4978284;28;20471;-82
2022/02/25 04:21:00;;;;;;;17.55;4.65;;;4.00;79.50;;;;;;4989694;28;20128;-82
2022/02/25 04:23:26;;;;;;;18.10;4.20;;;4.00;79.50;;;;;;4968060;28;20138;-82
2022/02/25 04:25:52;;;;;;;19.15;4.05;;;4.10;79.40;;;;;;4968014;28;20034;-82
2022/02/25 04:28:17;;;;;;;16.95;3.58;;;4.10;79.40;;;;;;4961841;28;20117;-81
2022/02/25 04:30:44;;;;;;;17.90;4.55;;;4.10;79.10;;;;;;4961749;28;20037;-81
2022/02/25 04:33:10;;;;;;;15.18;3.33;;;4.20;79.10;;;;;;4973088;28;20104;-81
2022/02/25 04:35:36;;;;;;;19.23;3.78;;;4.20;78.80;;;;;;4963704;28;20101;-81
2022/02/25 04:38:03;;;;;;;18.83;4.13;;;4.40;78.70;;;;;;4957732;28;20448;-81
2022/02/25 04:40:29;;;;;;;14.43;3.58;;;4.40;78.50;;;;;;4960400;28;20035;-81
2022/02/25 04:42:55;;;;;;;14.65;3.45;;;4.50;78.10;;;;;;4944157;28;20520;-81
2022/02/25 04:45:21;;;;;;;16.67;3.53;;;4.50;78.00;;;;;;4959663;28;20035;-81
2022/02/25 04:47:47;;;;;;;18.25;4.55;;;4.60;77.90;;;;;;4955586;28;20288;-81
2022/02/25 04:50:14;;;;;;;20.02;4.50;;;4.60;77.90;;;;;;4979315;28;20065;-81
2022/02/25 04:52:41;;;;;;;18.02;3.92;;;4.60;78.00;;;;;;4962648;28;20038;-81
2022/02/25 04:55:07;;;;;;;15.02;3.97;;;4.60;77.90;;;;;;4940630;28;20047;-81
2022/02/25 04:57:33;;;;;;;19.10;4.68;;;4.60;77.70;;;;;;4966507;28;20413;-82
2022/02/25 04:59:58;;;;;;;20.20;4.32;;;4.60;77.80;;;;;;4959661;28;20112;-81
2022/02/25 05:02:24;;;;;;;15.70;3.60;;;4.60;78.10;;;;;;4966683;28;20035;-81
2022/02/25 05:04:49;;;;;;;19.90;5.07;;;4.70;77.70;;;;;;4960563;28;20665;-81
2022/02/25 05:07:15;;;;;;;21.60;4.57;;;4.70;77.80;;;;;;4964638;28;20101;-81
2022/02/25 05:09:41;;;;;;;20.17;5.03;;;4.80;78.00;;;;;;4971301;28;20897;-81
2022/02/25 05:12:07;;;;;;;23.02;4.88;;;4.70;77.80;;;;;;4970584;28;20085;-82
2022/02/25 05:22:46;;;;;;;16.90;4.63;;;4.80;78.40;;;;;;4964523;28;20041;-81
2022/02/25 05:25:12;;;;;;;16.45;4.07;;;4.90;78.10;;;;;;4964212;28;20027;-81
2022/02/25 05:27:38;;;;;;;16.85;3.72;;;4.80;78.30;;;;;;4971299;28;20129;-81
2022/02/25 05:30:04;;;;;;;11.85;3.25;;;4.90;78.40;;;;;;4959563;28;20145;-81
2022/02/25 05:32:30;;;;;;;17.95;4.13;;;4.90;78.40;;;;;;4968325;28;20549;-82
2022/02/25 05:34:56;;;;;;;18.08;4.10;;;4.90;78.40;;;;;;4948202;28;20352;-82
2022/02/25 05:37:21;;;;;;;17.73;4.43;;;4.90;78.50;;;;;;4971529;28;20054;-82
2022/02/25 05:39:47;;;;;;;20.48;4.47;;;4.90;78.30;;;;;;4976549;28;20030;-82
2022/02/25 05:42:13;;;;;;;18.05;4.30;;;4.90;78.60;;;;;;4965180;28;20026;-81
2022/02/25 05:44:38;;;;;;;15.52;3.67;;;4.90;78.60;;;;;;4969308;28;20046;-81
2022/02/25 05:47:04;;;;;;;16.52;4.05;;;4.90;78.70;;;;;;4979288;28;20071;-82
2022/02/25 05:49:30;;;;;;;14.40;3.70;;;4.90;78.70;;;;;;4961116;28;20069;-81
2022/02/25 05:51:56;;;;;;;18.13;3.78;;;4.80;79.10;;;;;;4961677;28;20027;-81
2022/02/25 05:54:22;;;;;;;16.08;3.50;;;4.80;78.90;;;;;;4961082;28;20081;-81
2022/02/25 05:56:48;;;;;;;22.65;4.05;;;4.80;79.20;;;;;;4958157;28;20043;-81
2022/02/25 05:59:14;;;;;;;18.73;3.55;;;4.80;79.30;;;;;;4961160;28;20035;-81
2022/02/25 06:01:40;;;;;;;16.90;4.55;;;4.80;79.40;;;;;;4955414;28;20035;-81
2022/02/25 06:04:06;;;;;;;15.60;3.50;;;4.80;79.70;;;;;;4961787;28;20034;-82
2022/02/25 06:06:32;;;;;;;15.07;3.53;;;4.80;79.80;;;;;;4969528;28;20062;-80
2022/02/25 06:08:58;;;;;;;15.23;4.38;;;4.70;80.00;;;;;;4960982;28;20065;-81
2022/02/25 06:11:24;;;;;;;18.60;3.92;;;4.70;80.10;;;;;;4944574;28;20839;-81
2022/02/25 06:13:49;;;;;;;20.10;4.13;;;4.80;80.20;;;;;;4963194;28;20496;-81
2022/02/25 06:16:15;;;;;;;17.23;4.00;;;4.80;80.20;;;;;;4967990;28;20058;-80
2022/02/25 06:18:42;;;;;;;19.67;4.80;;;4.80;80.20;;;;;;4967802;28;20075;-81
2022/02/25 06:21:09;;;;;;;18.85;4.53;;;4.80;80.40;;;;;;4968594;28;20129;-80
2022/02/25 06:23:35;;;;;;;21.85;4.82;;;4.90;80.10;;;;;;4948565;28;20040;-81
2022/02/25 06:26:01;;;;;;;24.00;6.38;;;4.90;79.90;;;;;;4966073;28;20495;-80
2022/02/25 06:28:27;;;;;;;21.95;4.47;;;5.00;79.80;;;;;;4970383;28;20034;-82
2022/02/25 06:30:53;;;;;;;20.17;5.05;;;5.00;79.70;;;;;;4967087;28;20038;-80
2022/02/25 06:33:19;;;;;;;17.30;4.60;;;5.00;79.50;;;;;;4950107;28;20030;-80
2022/02/25 06:35:44;;;;;;;20.27;5.03;;;5.00;79.60;;;;;;4943007;28;20047;-80
2022/02/25 06:38:10;;;;;;;26.30;5.20;;;5.00;79.70;;;;;;4950331;28;20174;-80
2022/02/25 06:40:36;;;;;;;20.27;4.85;;;5.00;79.40;;;;;;4950528;28;20047;-81
2022/02/25 06:43:01;;;;;;;15.40;5.07;;;5.00;79.50;;;;;;4959292;28;20470;-83
2022/02/25 06:45:27;;;;;;;22.50;4.85;;;4.90;79.50;;;;;;4955027;28;20587;-80
2022/02/25 06:47:53;;;;;;;22.00;4.70;;;4.90;79.60;;;;;;4975876;28;20062;-81
2022/02/25 06:50:19;;;;;;;18.92;4.63;;;4.90;79.60;;;;;;4962032;28;20392;-81
2022/02/25 06:52:46;;;;;;;20.90;5.10;;;4.80;79.80;;;;;;4944719;28;20093;-80
2022/02/25 06:55:13;;;;;;;21.90;4.95;;;4.90;79.70;;;;;;4975949;28;20443;-80
2022/02/25 06:57:41;;;;;;;17.48;4.50;;;4.90;79.60;;;;;;4960370;28;20039;-80
2022/02/25 07:00:07;;;;;;;14.32;4.43;;;4.90;79.50;;;;;;4959896;28;20470;-80
2022/02/25 07:02:33;;;;;;;18.02;4.25;;;5.00;79.50;;;;;;4949983;28;20210;-80
2022/02/25 07:04:59;;;;;;;13.70;4.40;;;4.90;79.60;;;;;;4956312;28;20030;-80
2022/02/25 07:07:24;;;;;;;19.90;4.18;;;5.00;79.50;;;;;;4959175;28;20058;-80
2022/02/25 07:09:50;;;;;;;21.95;5.05;;;5.00;79.40;;;;;;4954886;28;20042;-80
2022/02/25 07:12:16;;;;;;;22.52;4.88;;;5.10;79.30;;;;;;4945900;28;20038;-80
2022/02/25 07:14:41;;;;;;;14.73;3.30;;;5.00;79.50;;;;;;4958498;28;20090;-81
2022/02/25 07:17:08;;;;;;;19.25;5.18;;;5.10;79.30;;;;;;4959181;28;20058;-80
2022/02/25 07:19:33;;;;;;;20.98;3.88;;;5.10;79.10;;;;;;4956574;28;20498;-80
2022/02/25 07:21:59;;;;;;;17.08;4.63;;;5.10;79.00;;;;;;4959659;28;20103;-81
2022/02/25 07:24:25;;;;;;;20.08;4.78;;;5.10;79.10;;;;;;4960947;28;20031;-81
2022/02/25 07:26:50;;;;;;;18.52;4.45;;;5.20;79.10;;;;;;4959557;28;20046;-81
2022/02/25 07:29:16;;;;;;;16.98;4.45;;;5.10;79.10;;;;;;4966100;28;20061;-80
2022/02/25 07:31:41;;;;;;;18.70;3.88;;;5.20;79.10;;;;;;4961074;28;20069;-81
2022/02/25 07:34:07;;;;;;;19.15;3.70;;;5.20;79.00;;;;;;4971107;28;20034;-78
2022/02/25 07:36:34;;;;;;;19.42;4.97;;;5.20;78.90;;;;;;4973536;28;20142;-81
2022/02/25 07:38:59;;;;;;;19.48;4.68;;;5.20;78.80;;;;;;4966176;28;20075;-81
2022/02/25 07:41:25;;;;;;;18.10;4.03;;;5.10;78.90;;;;;;4966808;28;20139;-74
2022/02/25 07:43:51;;;;;;;20.35;4.88;;;5.10;79.20;;;;;;4962077;28;20039;-75
2022/02/25 07:46:17;;;;;;;19.10;4.90;;;5.10;79.10;;;;;;4955313;28;20486;-76
2022/02/25 07:48:43;;;;;;;26.67;4.90;;;5.10;79.00;;;;;;4942283;28;20058;-76
2022/02/25 07:51:09;;;;;;;18.45;4.38;;;5.10;79.10;;;;;;4949186;28;20066;-75
2022/02/25 07:53:35;;;;;;;15.07;3.97;;;5.10;79.20;;;;;;4954679;28;20046;-76
2022/02/25 07:56:02;;;;;;;22.08;4.28;;;5.10;79.30;;;;;;4957909;28;20042;-75
2022/02/25 07:58:29;;;;;;;20.70;4.10;;;5.10;79.30;;;;;;4937618;28;20397;-75
2022/02/25 08:00:55;;;;;;;21.83;5.50;;;5.20;79.00;;;;;;4956721;28;20051;-75
2022/02/25 08:03:21;;;;;;;16.52;4.22;;;5.20;79.10;;;;;;4951281;28;20205;-75
2022/02/25 08:05:47;;;;;;;17.50;4.07;;;5.30;79.10;;;;;;4952732;28;20289;-77
2022/02/25 08:08:13;;;;;;;19.90;5.53;;;5.30;79.00;;;;;;4956125;28;20588;-77
2022/02/25 08:10:39;;;;;;;16.20;4.18;;;5.40;79.20;;;;;;4954278;28;20038;-76
2022/02/25 08:13:08;;;;;;;14.05;3.53;;;5.40;79.20;;;;;;4956857;28;20422;-76
2022/02/25 08:15:35;;;;;;;16.85;4.55;;;5.40;79.20;;;;;;4963742;28;20027;-78
2022/02/25 08:18:06;;;;;;;19.23;4.72;;;5.50;78.90;;;;;;4958623;28;20127;-77
2022/02/25 08:20:34;;;;;;;18.73;4.05;;;5.60;78.90;;;;;;4971590;28;20039;-78
2022/02/25 08:23:02;;;;;;;22.88;5.45;;;5.70;78.60;;;;;;4953903;28;20307;-77
2022/02/25 08:25:29;;;;;;;18.65;5.30;;;5.70;78.50;;;;;;4949843;28;20031;-75
2022/02/25 08:27:56;;;;;;;18.63;4.93;;;5.80;78.40;;;;;;4954540;28;20046;-76
2022/02/25 08:30:22;;;;;;;19.13;5.82;;;5.90;78.10;;;;;;4958112;28;20082;-74
2022/02/25 08:32:50;;;;;;;20.40;4.78;;;6.00;78.30;;;;;;4959921;28;20058;-74
2022/02/25 08:35:17;;;;;;;21.60;6.05;;;6.10;78.00;;;;;;4941747;28;20062;-74
2022/02/25 08:37:45;;;;;;;20.52;5.32;;;6.20;77.70;;;;;;4958463;28;20031;-75
2022/02/25 08:40:12;;;;;;;22.92;5.60;;;6.30;77.60;;;;;;4960418;28;20045;-76
2022/02/25 08:42:38;;;;;;;16.85;4.88;;;6.30;77.30;;;;;;4957094;28;20143;-75
2022/02/25 08:45:05;;;;;;;16.95;5.43;;;6.30;77.00;;;;;;4961905;28;20031;-73
2022/02/25 08:47:32;;;;;;;19.13;4.35;;;6.50;76.90;;;;;;4959604;28;20079;-76
2022/02/25 08:49:58;;;;;;;16.23;5.13;;;6.60;75.90;;;;;;4952908;28;20077;-72
2022/02/25 08:52:24;;;;;;;18.98;4.93;;;6.60;76.40;;;;;;4961311;28;20034;-75
2022/02/25 08:54:50;;;;;;;21.00;6.45;;;6.70;76.40;;;;;;4955003;28;20043;-76
2022/02/25 08:57:16;;;;;;;23.80;5.40;;;6.90;75.60;;;;;;4961299;28;20054;-74
2022/02/25 08:59:42;;;;;;;15.60;4.60;;;7.00;75.30;;;;;;4969476;28;20348;-74
2022/02/25 09:02:10;;;;;;;17.17;4.43;;;7.10;74.60;;;;;;4955238;28;20051;-73
2022/02/25 09:04:37;;;;;;;21.45;5.90;;;7.20;74.30;;;;;;4953993;28;20030;-74
2022/02/25 09:07:03;;;;;;;16.30;4.38;;;7.20;73.90;;;;;;4958817;28;20466;-73
2022/02/25 09:09:29;;;;;;;15.15;4.22;;;7.20;74.60;;;;;;4957769;28;20035;-75
2022/02/25 09:11:55;;;;;;;25.98;4.55;;;7.20;74.40;;;;;;4964100;28;20039;-73
2022/02/25 09:14:21;;;;;;;23.80;4.78;;;7.40;74.60;;;;;;4972674;28;20034;-74
2022/02/25 09:16:47;;;;;;;13.50;4.88;;;7.40;74.00;;;;;;4977287;28;20047;-74
2022/02/25 09:19:13;;;;;;;16.38;3.47;;;7.40;73.80;;;;;;4983214;28;20686;-76
2022/02/25 09:21:39;;;;;;;17.05;4.63;;;7.50;74.10;;;;;;4961213;28;20023;-74
2022/02/25 09:24:06;;;;;;;18.45;4.60;;;7.60;73.70;;;;;;4955374;28;20407;-75
2022/02/25 09:26:32;;;;;;;21.25;4.35;;;7.80;72.70;;;;;;4962671;28;20518;-75
2022/02/25 09:28:59;;;;;;;24.15;4.85;;;7.90;72.80;;;;;;4966465;28;20090;-74
2022/02/25 09:31:26;;;;;;;15.13;4.60;;;7.80;73.00;;;;;;4969881;28;20040;-75
2022/02/25 09:33:52;;;;;;;17.67;4.30;;;7.90;72.20;;;;;;4979102;28;20033;-76
2022/02/25 09:36:19;;;;;;;18.75;4.50;;;7.90;72.80;;;;;;4968287;28;20034;-74
2022/02/25 09:38:44;;;;;;;23.88;6.75;;;8.10;72.20;;;;;;4963183;28;20053;-74
2022/02/25 09:41:11;;;;;;;21.17;4.88;;;8.10;71.70;;;;;;4964352;28;20150;-77
2022/02/25 09:43:37;;;;;;;15.38;3.53;;;7.90;73.00;;;;;;4967947;28;20045;-73
2022/02/25 09:46:05;;;;;;;16.52;3.53;;;8.00;72.90;;;;;;4984086;28;20043;-78
2022/02/25 09:48:31;;;;;;;20.70;4.78;;;7.80;72.70;;;;;;4966695;28;20100;-74
2022/02/25 09:50:58;;;;;;;21.10;4.57;;;7.70;73.60;;;;;;4965967;28;20038;-72
2022/02/25 09:53:25;;;;;;;16.75;4.35;;;7.50;73.30;;;;;;4959180;28;20122;-73
2022/02/25 09:55:51;;;;;;;16.02;4.05;;;7.50;73.60;;;;;;4944059;28;20039;-73
2022/02/25 09:58:16;;;;;;;18.70;3.83;;;7.70;73.70;;;;;;4943726;28;20553;-76
2022/02/25 10:00:43;;;;;;;12.98;3.45;;;7.70;73.80;;;;;;4966496;28;20070;-76
2022/02/25 10:03:21;;;;;;;14.88;4.20;;;7.80;73.70;;;;;;4962936;28;20511;-74
2022/02/25 10:05:48;;;;;;;17.60;4.07;;;7.80;73.80;;;;;;4964903;28;20051;-78
2022/02/25 10:08:22;;;;;;;17.95;3.75;;;7.70;74.20;;;;;;4959939;28;20465;-75
2022/02/25 10:10:56;;;;;;;14.55;3.45;;;7.70;73.70;;;;;;4966073;28;20054;-74
2022/02/25 10:13:24;;;;;;;18.15;3.72;;;7.70;72.80;;;;;;4962541;28;20110;-74
2022/02/25 10:15:53;;;;;;;15.52;4.13;;;7.90;72.80;;;;;;4957949;28;20057;-75
2022/02/25 10:18:24;;;;;;;18.35;3.88;;;8.40;73.50;;;;;;4976982;28;20141;-75
2022/02/25 10:21:10;;;;;;;14.32;3.80;;;8.30;71.80;;;;;;4970218;28;20026;-75
2022/02/25 10:23:37;;;;;;;15.73;3.78;;;8.30;72.10;;;;;;4964997;28;20500;-75
2022/02/25 10:26:21;;;;;;;19.02;3.53;;;8.30;71.30;;;;;;4963080;28;20734;-75
2022/02/25 10:28:52;;;;;;;18.13;3.75;;;8.20;71.80;;;;;;4960519;28;20023;-73
2022/02/25 10:31:36;;;;;;;17.73;5.03;;;8.00;71.00;;;;;;4963377;28;20027;-74
2022/02/25 10:34:12;;;;;;;16.42;4.18;;;7.90;71.60;;;;;;4960144;28;20035;-74
2022/02/25 10:36:51;;;;;;;15.90;3.42;;;7.90;71.80;;;;;;4939930;28;20379;-74
2022/02/25 10:39:25;;;;;;;15.60;3.92;;;7.90;71.50;;;;;;4961562;28;20019;-73
2022/02/25 10:42:11;;;;;;;17.90;4.88;;;8.00;71.90;;;;;;4945950;28;20045;-74
2022/02/25 10:44:45;;;;;;;20.58;4.15;;;8.00;71.10;;;;;;4966157;28;20039;-75
2022/02/25 10:47:14;;;;;;;15.00;3.75;;;8.00;71.40;;;;;;4966393;28;20046;-74
2022/02/25 10:49:39;;;;;;;11.57;3.72;;;8.20;70.90;;;;;;4965018;28;20024;-75
2022/02/25 10:52:26;;;;;;;13.27;3.72;;;8.30;70.90;;;;;;4971008;28;20538;-73
2022/02/25 10:54:53;;;;;;;13.70;3.33;;;8.20;71.10;;;;;;4964107;28;20093;-75
2022/02/25 10:57:21;;;;;;;12.45;3.58;;;8.30;71.20;;;;;;4965816;28;20042;-75
2022/02/25 10:59:48;;;;;;;14.68;3.38;;;8.50;70.80;;;;;;4968224;28;20118;-73
2022/02/25 11:02:38;;;;;;;15.88;3.60;;;8.30;69.70;;;;;;4966359;28;20522;-73
2022/02/25 11:05:10;;;;;;;13.10;3.65;;;8.20;70.60;;;;;;4976996;28;20027;-75
2022/02/25 11:07:38;;;;;;;16.88;3.72;;;8.10;70.30;;;;;;4969140;28;20497;-76
2022/02/25 11:10:05;;;;;;;19.42;2.95;;;8.20;69.80;;;;;;4962302;28;20406;-75
2022/02/25 11:12:34;;;;;;;19.88;3.80;;;8.40;70.10;;;;;;4975262;28;20470;-75
2022/02/25 11:15:01;;;;;;;13.23;3.10;;;8.60;69.60;;;;;;4965662;28;20105;-75
2022/02/25 11:17:28;;;;;;;17.80;3.45;;;8.70;68.90;;;;;;4971258;28;20051;-73
2022/02/25 11:19:58;;;;;;;13.80;3.35;;;8.50;68.70;;;;;;4972838;28;20034;-74
2022/02/25 11:22:25;;;;;;;15.70;3.55;;;8.60;69.80;;;;;;4969191;28;20023;-76
2022/02/25 11:24:52;;;;;;;12.85;3.60;;;8.80;67.90;;;;;;4965406;28;20121;-75
2022/02/25 11:27:19;;;;;;;15.10;3.30;;;9.20;68.10;;;;;;4973958;28;20172;-75
2022/02/25 11:30:02;;;;;;;13.68;3.10;;;9.40;67.00;;;;;;4954690;28;20351;-74
2022/02/25 11:32:35;;;;;;;14.55;2.88;;;9.60;65.20;;;;;;4946719;28;20039;-75
2022/02/25 11:35:11;;;;;;;18.63;3.78;;;9.40;65.50;;;;;;4951057;28;20062;-76
2022/02/25 11:37:43;;;;;;;14.63;4.07;;;9.00;67.40;;;;;;4968006;28;20474;-76
2022/02/25 11:40:10;;;;;;;21.35;5.97;;;8.70;67.70;;;;;;4972929;28;20133;-74
2022/02/25 11:42:35;;;;;;;13.57;3.53;;;8.70;68.90;;;;;;4965029;28;20158;-76
2022/02/25 11:45:20;;;;;;;12.73;4.10;;;8.90;67.70;;;;;;4964983;28;20035;-75
2022/02/25 11:47:55;;;;;;;17.30;3.55;;;8.90;68.00;;;;;;4964267;28;20055;-75
2022/02/25 11:50:36;;;;;;;15.77;3.25;;;8.90;69.00;;;;;;4963228;28;20039;-74
2022/02/25 11:53:16;;;;;;;15.00;3.85;;;8.80;67.80;;;;;;4954589;28;20045;-74
2022/02/25 11:55:43;;;;;;;14.45;3.65;;;8.60;67.70;;;;;;4953509;28;20063;-74
2022/02/25 11:58:46;;;;;;;15.55;3.38;;;8.50;69.00;;;;;;4944925;28;20035;-73
2022/02/25 12:01:17;;;;;;;13.90;3.30;;;8.50;69.70;;;;;;4956787;28;20499;-73
2022/02/25 12:04:05;;;;;;;18.05;3.45;;;8.60;70.30;;;;;;4960515;28;20146;-76
2022/02/25 12:07:07;;;;;;;13.10;3.58;;;8.60;69.20;;;;;;4961280;28;20047;-75
2022/02/25 12:09:44;;;;;;;16.25;4.57;;;8.80;68.60;;;;;;4968404;28;20037;-74
2022/02/25 12:12:22;;;;;;;18.95;4.55;;;8.60;68.40;;;;;;4964254;28;20070;-75
2022/02/25 12:15:13;;;;;;;15.20;3.58;;;8.50;69.00;;;;;;4967440;28;20039;-75
2022/02/25 12:17:55;;;;;;;15.93;3.90;;;8.50;69.50;;;;;;4963508;28;20101;-75
2022/02/25 12:20:24;;;;;;;16.83;3.47;;;8.70;69.40;;;;;;4960145;28;20043;-75
2022/02/25 12:23:10;;;;;;;11.25;2.80;;;8.90;68.10;;;;;;4958224;28;20042;-75
2022/02/25 12:25:41;;;;;;;13.35;3.97;;;9.10;66.20;;;;;;4957841;28;20551;-74
2022/02/25 12:28:10;;;;;;;16.60;3.50;;;9.20;65.50;;;;;;4960247;28;20042;-75
2022/02/25 12:30:43;;;;;;;12.55;3.08;;;9.30;66.30;;;;;;4971592;28;20035;-75
2022/02/25 12:33:36;;;;;;;13.68;3.28;;;9.30;67.30;;;;;;4958658;28;20043;-76
2022/02/25 12:36:06;;;;;;;14.40;3.50;;;8.80;67.00;;;;;;4942791;28;20097;-76
2022/02/25 12:38:55;;;;;;;12.82;3.97;;;8.60;66.50;;;;;;4958306;28;20096;-75
2022/02/25 12:41:23;;;;;;;16.85;3.30;;;8.70;66.30;;;;;;4957100;28;20438;-75
2022/02/25 12:43:53;;;;;;;14.43;3.42;;;8.70;67.20;;;;;;4960559;28;20031;-75
2022/02/25 12:46:21;;;;;;;15.02;3.67;;;8.70;67.60;;;;;;4960406;28;20659;-75
2022/02/25 12:48:49;;;;;;;18.23;4.43;;;8.70;68.40;;;;;;4958678;28;20042;-76
2022/02/25 12:51:15;;;;;;;18.17;3.85;;;8.90;68.00;;;;;;4946766;28;20031;-73
2022/02/25 12:53:52;;;;;;;21.42;4.20;;;9.00;68.40;;;;;;4960659;28;20039;-74
2022/02/25 12:56:20;;;;;;;11.68;3.30;;;8.90;67.30;;;;;;4962485;28;20112;-73
2022/02/25 12:58:47;;;;;;;14.30;3.22;;;8.70;67.70;;;;;;4965888;28;20038;-72
2022/02/25 13:01:21;;;;;;;14.80;3.67;;;8.50;68.10;;;;;;4964724;28;20027;-73